sensor_id;sensor_type;location;lat;lon;timestamp;temperature;humidity
48994;DHT22;34804;49.214;12.276;2023-05-10T00:01:23;11.90;79.60
48994;DHT22;34804;49.214;12.276;2023-05-10T00:03:50;11.90;79.40
48994;DHT22;34804;49.214;12.276;2023-05-10T00:06:17;11.80;79.10
48994;DHT22;34804;49.214;12.276;2023-05-10T00:08:45;11.70;80.80
48994;DHT22;34804;49.214;12.276;2023-05-10T00:11:12;11.70;81.80
48994;DHT22;34804;49.214;12.276;2023-05-10T00:13:39;11.60;82.90
48994;DHT22;34804;49.214;12.276;2023-05-10T00:16:06;11.60;83.00
48994;DHT22;34804;49.214;12.276;2023-05-10T00:18:33;11.50;82.50
48994;DHT22;34804;49.214;12.276;2023-05-10T00:21:00;11.50;82.00
48994;DHT22;34804;49.214;12.276;2023-05-10T00:23:27;11.50;82.70
48994;DHT22;34804;49.214;12.276;2023-05-10T00:25:54;11.60;82.00
48994;DHT22;34804;49.214;12.276;2023-05-10T00:28:21;11.50;81.30
48994;DHT22;34804;49.214;12.276;2023-05-10T00:30:48;11.60;81.30
48994;DHT22;34804;49.214;12.276;2023-05-10T00:33:15;11.60;82.40
48994;DHT22;34804;49.214;12.276;2023-05-10T00:35:41;11.50;83.10
48994;DHT22;34804;49.214;12.276;2023-05-10T00:38:08;11.50;82.60
48994;DHT22;34804;49.214;12.276;2023-05-10T00:40:36;11.50;83.50
48994;DHT22;34804;49.214;12.276;2023-05-10T00:43:04;11.50;83.00
48994;DHT22;34804;49.214;12.276;2023-05-10T00:45:32;11.50;82.90
48994;DHT22;34804;49.214;12.276;2023-05-10T00:48:02;11.40;82.30
48994;DHT22;34804;49.214;12.276;2023-05-10T00:50:31;11.40;82.50
48994;DHT22;34804;49.214;12.276;2023-05-10T00:52:59;11.40;83.80
48994;DHT22;34804;49.214;12.276;2023-05-10T00:55:27;11.30;84.70
48994;DHT22;34804;49.214;12.276;2023-05-10T00:57:54;11.20;84.80
48994;DHT22;34804;49.214;12.276;2023-05-10T01:00:22;11.20;85.30
48994;DHT22;34804;49.214;12.276;2023-05-10T01:02:49;11.00;85.70
48994;DHT22;34804;49.214;12.276;2023-05-10T01:05:17;10.90;85.70
48994;DHT22;34804;49.214;12.276;2023-05-10T01:07:43;11.00;86.00
48994;DHT22;34804;49.214;12.276;2023-05-10T01:10:10;11.10;85.90
48994;DHT22;34804;49.214;12.276;2023-05-10T01:12:40;11.10;86.00
48994;DHT22;34804;49.214;12.276;2023-05-10T01:15:08;11.20;85.90
48994;DHT22;34804;49.214;12.276;2023-05-10T01:17:36;11.20;85.80
48994;DHT22;34804;49.214;12.276;2023-05-10T01:20:05;11.20;85.40
48994;DHT22;34804;49.214;12.276;2023-05-10T01:22:59;11.20;84.70
48994;DHT22;34804;49.214;12.276;2023-05-10T01:25:37;11.20;84.20
48994;DHT22;34804;49.214;12.276;2023-05-10T01:36:47;11.30;84.40
48994;DHT22;34804;49.214;12.276;2023-05-10T01:39:25;11.30;84.30
48994;DHT22;34804;49.214;12.276;2023-05-10T01:42:42;11.30;85.30
48994;DHT22;34804;49.214;12.276;2023-05-10T01:45:06;11.30;85.00
48994;DHT22;34804;49.214;12.276;2023-05-10T01:47:41;11.30;84.90
48994;DHT22;34804;49.214;12.276;2023-05-10T01:50:18;11.40;84.80
48994;DHT22;34804;49.214;12.276;2023-05-10T01:52:53;11.40;84.60
48994;DHT22;34804;49.214;12.276;2023-05-10T01:55:25;11.50;85.80
48994;DHT22;34804;49.214;12.276;2023-05-10T01:58:00;11.60;85.80
48994;DHT22;34804;49.214;12.276;2023-05-10T02:00:29;11.60;84.90
48994;DHT22;34804;49.214;12.276;2023-05-10T02:03:00;11.60;84.80
48994;DHT22;34804;49.214;12.276;2023-05-10T02:05:29;11.70;84.80
48994;DHT22;34804;49.214;12.276;2023-05-10T02:07:59;11.70;84.70
48994;DHT22;34804;49.214;12.276;2023-05-10T02:10:28;11.60;84.20
48994;DHT22;34804;49.214;12.276;2023-05-10T02:12:58;11.60;84.40
48994;DHT22;34804;49.214;12.276;2023-05-10T02:15:26;11.50;85.60
48994;DHT22;34804;49.214;12.276;2023-05-10T02:17:55;11.40;86.60
48994;DHT22;34804;49.214;12.276;2023-05-10T02:20:24;11.40;85.80
48994;DHT22;34804;49.214;12.276;2023-05-10T02:22:54;11.50;86.00
48994;DHT22;34804;49.214;12.276;2023-05-10T02:25:22;11.60;85.00
48994;DHT22;34804;49.214;12.276;2023-05-10T02:27:50;11.70;84.60
48994;DHT22;34804;49.214;12.276;2023-05-10T02:30:20;11.70;84.40
48994;DHT22;34804;49.214;12.276;2023-05-10T02:32:49;11.80;84.60
48994;DHT22;34804;49.214;12.276;2023-05-10T02:35:17;11.80;84.70
48994;DHT22;34804;49.214;12.276;2023-05-10T02:37:45;11.90;85.20
48994;DHT22;34804;49.214;12.276;2023-05-10T02:40:14;11.80;85.60
48994;DHT22;34804;49.214;12.276;2023-05-10T02:42:42;11.80;85.50
48994;DHT22;34804;49.214;12.276;2023-05-10T02:45:17;11.60;84.70
48994;DHT22;34804;49.214;12.276;2023-05-10T02:47:44;11.60;84.30
48994;DHT22;34804;49.214;12.276;2023-05-10T02:50:11;11.50;85.20
48994;DHT22;34804;49.214;12.276;2023-05-10T02:52:51;11.50;85.30
48994;DHT22;34804;49.214;12.276;2023-05-10T02:55:26;11.60;85.30
48994;DHT22;34804;49.214;12.276;2023-05-10T02:58:01;11.60;84.80
48994;DHT22;34804;49.214;12.276;2023-05-10T03:00:28;11.50;84.10
48994;DHT22;34804;49.214;12.276;2023-05-10T03:02:55;11.60;84.60
48994;DHT22;34804;49.214;12.276;2023-05-10T03:05:22;11.60;85.40
48994;DHT22;34804;49.214;12.276;2023-05-10T03:07:50;11.60;85.80
48994;DHT22;34804;49.214;12.276;2023-05-10T03:10:18;11.70;85.90
48994;DHT22;34804;49.214;12.276;2023-05-10T03:16:02;11.50;85.60
48994;DHT22;34804;49.214;12.276;2023-05-10T03:18:48;11.40;86.00
48994;DHT22;34804;49.214;12.276;2023-05-10T03:21:18;11.50;87.10
48994;DHT22;34804;49.214;12.276;2023-05-10T03:23:58;11.50;86.80
48994;DHT22;34804;49.214;12.276;2023-05-10T03:26:27;11.60;87.10
48994;DHT22;34804;49.214;12.276;2023-05-10T03:28:55;11.60;87.40
48994;DHT22;34804;49.214;12.276;2023-05-10T03:31:23;11.60;86.80
48994;DHT22;34804;49.214;12.276;2023-05-10T03:33:51;11.60;86.50
48994;DHT22;34804;49.214;12.276;2023-05-10T03:36:18;11.50;86.90
48994;DHT22;34804;49.214;12.276;2023-05-10T03:38:45;11.50;86.70
48994;DHT22;34804;49.214;12.276;2023-05-10T03:41:12;11.50;86.90
48994;DHT22;34804;49.214;12.276;2023-05-10T03:43:39;11.40;86.80
48994;DHT22;34804;49.214;12.276;2023-05-10T03:46:06;11.40;87.10
48994;DHT22;34804;49.214;12.276;2023-05-10T03:48:33;11.30;87.80
48994;DHT22;34804;49.214;12.276;2023-05-10T03:51:00;11.40;88.40
48994;DHT22;34804;49.214;12.276;2023-05-10T03:53:26;11.30;88.70
48994;DHT22;34804;49.214;12.276;2023-05-10T03:55:53;11.40;88.90
48994;DHT22;34804;49.214;12.276;2023-05-10T03:58:20;11.40;89.10
48994;DHT22;34804;49.214;12.276;2023-05-10T04:00:48;11.40;89.20
48994;DHT22;34804;49.214;12.276;2023-05-10T04:03:15;11.30;89.40
48994;DHT22;34804;49.214;12.276;2023-05-10T04:05:42;11.40;90.40
48994;DHT22;34804;49.214;12.276;2023-05-10T04:08:08;11.40;89.70
48994;DHT22;34804;49.214;12.276;2023-05-10T04:10:35;11.40;89.90
48994;DHT22;34804;49.214;12.276;2023-05-10T04:13:02;11.30;90.20
48994;DHT22;34804;49.214;12.276;2023-05-10T04:15:29;11.30;89.80
48994;DHT22;34804;49.214;12.276;2023-05-10T04:17:56;11.40;90.30
48994;DHT22;34804;49.214;12.276;2023-05-10T04:20:23;11.40;90.10
48994;DHT22;34804;49.214;12.276;2023-05-10T04:22:50;11.40;90.00
48994;DHT22;34804;49.214;12.276;2023-05-10T04:25:17;11.40;89.70
48994;DHT22;34804;49.214;12.276;2023-05-10T04:27:43;11.40;90.20
48994;DHT22;34804;49.214;12.276;2023-05-10T04:30:10;11.40;90.50
48994;DHT22;34804;49.214;12.276;2023-05-10T04:32:37;11.40;90.20
48994;DHT22;34804;49.214;12.276;2023-05-10T04:35:04;11.40;90.80
48994;DHT22;34804;49.214;12.276;2023-05-10T04:37:31;11.30;90.90
48994;DHT22;34804;49.214;12.276;2023-05-10T04:39:58;11.30;90.60
48994;DHT22;34804;49.214;12.276;2023-05-10T04:42:26;11.30;90.50
48994;DHT22;34804;49.214;12.276;2023-05-10T04:44:53;11.30;89.60
48994;DHT22;34804;49.214;12.276;2023-05-10T04:47:20;11.30;90.10
48994;DHT22;34804;49.214;12.276;2023-05-10T04:49:46;11.40;90.20
48994;DHT22;34804;49.214;12.276;2023-05-10T04:52:13;11.40;90.10
48994;DHT22;34804;49.214;12.276;2023-05-10T04:54:43;11.50;89.70
48994;DHT22;34804;49.214;12.276;2023-05-10T04:57:10;11.70;90.30
48994;DHT22;34804;49.214;12.276;2023-05-10T04:59:36;11.70;90.00
48994;DHT22;34804;49.214;12.276;2023-05-10T05:02:04;11.60;89.90
48994;DHT22;34804;49.214;12.276;2023-05-10T05:04:31;11.70;89.80
48994;DHT22;34804;49.214;12.276;2023-05-10T05:06:58;11.60;90.10
48994;DHT22;34804;49.214;12.276;2023-05-10T05:09:25;11.60;89.50
48994;DHT22;34804;49.214;12.276;2023-05-10T05:11:52;11.60;89.50
48994;DHT22;34804;49.214;12.276;2023-05-10T05:14:19;11.70;90.30
48994;DHT22;34804;49.214;12.276;2023-05-10T05:16:47;11.80;90.30
48994;DHT22;34804;49.214;12.276;2023-05-10T05:19:14;11.70;90.30
48994;DHT22;34804;49.214;12.276;2023-05-10T05:21:42;11.70;90.10
48994;DHT22;34804;49.214;12.276;2023-05-10T05:24:09;11.70;89.80
48994;DHT22;34804;49.214;12.276;2023-05-10T05:26:36;11.70;90.40
48994;DHT22;34804;49.214;12.276;2023-05-10T05:29:03;11.70;90.60
48994;DHT22;34804;49.214;12.276;2023-05-10T05:31:30;11.70;90.20
48994;DHT22;34804;49.214;12.276;2023-05-10T05:33:57;11.60;90.20
48994;DHT22;34804;49.214;12.276;2023-05-10T05:36:24;11.60;90.70
48994;DHT22;34804;49.214;12.276;2023-05-10T05:38:51;11.70;91.30
48994;DHT22;34804;49.214;12.276;2023-05-10T05:41:17;11.60;90.70
48994;DHT22;34804;49.214;12.276;2023-05-10T05:43:44;11.60;91.10
48994;DHT22;34804;49.214;12.276;2023-05-10T05:46:11;11.80;91.10
48994;DHT22;34804;49.214;12.276;2023-05-10T05:48:38;11.80;91.10
48994;DHT22;34804;49.214;12.276;2023-05-10T05:51:05;11.70;90.70
48994;DHT22;34804;49.214;12.276;2023-05-10T05:53:33;11.70;90.30
48994;DHT22;34804;49.214;12.276;2023-05-10T05:55:59;11.60;90.60
48994;DHT22;34804;49.214;12.276;2023-05-10T05:58:26;11.60;90.20
48994;DHT22;34804;49.214;12.276;2023-05-10T06:00:53;11.60;90.60
48994;DHT22;34804;49.214;12.276;2023-05-10T06:03:20;11.90;91.10
48994;DHT22;34804;49.214;12.276;2023-05-10T06:05:47;12.00;91.00
48994;DHT22;34804;49.214;12.276;2023-05-10T06:08:14;12.00;89.80
48994;DHT22;34804;49.214;12.276;2023-05-10T06:10:41;12.10;90.10
48994;DHT22;34804;49.214;12.276;2023-05-10T06:13:08;12.10;90.00
48994;DHT22;34804;49.214;12.276;2023-05-10T06:15:35;12.10;90.20
48994;DHT22;34804;49.214;12.276;2023-05-10T06:18:02;12.00;89.30
48994;DHT22;34804;49.214;12.276;2023-05-10T06:20:29;11.90;89.90
48994;DHT22;34804;49.214;12.276;2023-05-10T06:22:58;12.10;90.40
48994;DHT22;34804;49.214;12.276;2023-05-10T06:25:25;12.10;90.80
48994;DHT22;34804;49.214;12.276;2023-05-10T06:27:52;12.20;90.60
48994;DHT22;34804;49.214;12.276;2023-05-10T06:30:24;12.20;90.40
48994;DHT22;34804;49.214;12.276;2023-05-10T06:32:54;12.30;90.40
48994;DHT22;34804;49.214;12.276;2023-05-10T06:35:21;12.30;90.50
48994;DHT22;34804;49.214;12.276;2023-05-10T06:37:49;12.30;90.60
48994;DHT22;34804;49.214;12.276;2023-05-10T06:40:16;12.40;90.40
48994;DHT22;34804;49.214;12.276;2023-05-10T06:42:43;12.50;90.20
48994;DHT22;34804;49.214;12.276;2023-05-10T06:45:12;12.50;90.20
48994;DHT22;34804;49.214;12.276;2023-05-10T06:47:39;12.60;89.30
48994;DHT22;34804;49.214;12.276;2023-05-10T06:50:07;12.60;89.50
48994;DHT22;34804;49.214;12.276;2023-05-10T06:52:34;12.70;89.50
48994;DHT22;34804;49.214;12.276;2023-05-10T06:55:02;12.60;89.60
48994;DHT22;34804;49.214;12.276;2023-05-10T06:57:30;12.70;89.60
48994;DHT22;34804;49.214;12.276;2023-05-10T06:59:58;12.60;89.50
48994;DHT22;34804;49.214;12.276;2023-05-10T07:02:25;12.70;90.30
48994;DHT22;34804;49.214;12.276;2023-05-10T07:04:52;12.60;90.20
48994;DHT22;34804;49.214;12.276;2023-05-10T07:07:20;12.70;89.60
48994;DHT22;34804;49.214;12.276;2023-05-10T07:09:46;12.70;89.90
48994;DHT22;34804;49.214;12.276;2023-05-10T07:12:13;12.70;89.90
48994;DHT22;34804;49.214;12.276;2023-05-10T07:14:42;12.70;89.30
48994;DHT22;34804;49.214;12.276;2023-05-10T07:17:09;12.70;89.60
48994;DHT22;34804;49.214;12.276;2023-05-10T07:19:36;12.70;89.50
48994;DHT22;34804;49.214;12.276;2023-05-10T07:22:03;12.70;89.00
48994;DHT22;34804;49.214;12.276;2023-05-10T07:24:30;12.80;90.10
48994;DHT22;34804;49.214;12.276;2023-05-10T07:26:58;12.80;89.80
48994;DHT22;34804;49.214;12.276;2023-05-10T07:29:25;12.80;89.70
48994;DHT22;34804;49.214;12.276;2023-05-10T07:31:52;12.90;89.90
48994;DHT22;34804;49.214;12.276;2023-05-10T07:34:18;12.80;89.30
48994;DHT22;34804;49.214;12.276;2023-05-10T07:36:45;12.80;89.20
48994;DHT22;34804;49.214;12.276;2023-05-10T07:39:12;12.80;88.90
48994;DHT22;34804;49.214;12.276;2023-05-10T07:41:50;12.80;89.00
48994;DHT22;34804;49.214;12.276;2023-05-10T07:44:17;12.70;89.80
48994;DHT22;34804;49.214;12.276;2023-05-10T07:46:47;12.80;90.00
48994;DHT22;34804;49.214;12.276;2023-05-10T07:49:14;12.90;90.20
48994;DHT22;34804;49.214;12.276;2023-05-10T07:51:41;13.00;89.40
48994;DHT22;34804;49.214;12.276;2023-05-10T07:54:11;13.20;89.30
48994;DHT22;34804;49.214;12.276;2023-05-10T07:56:39;13.30;88.80
48994;DHT22;34804;49.214;12.276;2023-05-10T07:59:07;13.40;88.20
48994;DHT22;34804;49.214;12.276;2023-05-10T08:01:36;13.50;88.10
48994;DHT22;34804;49.214;12.276;2023-05-10T08:04:03;13.70;88.00
48994;DHT22;34804;49.214;12.276;2023-05-10T08:06:30;13.80;87.60
48994;DHT22;34804;49.214;12.276;2023-05-10T08:08:57;13.90;86.90
48994;DHT22;34804;49.214;12.276;2023-05-10T08:11:24;14.10;86.10
48994;DHT22;34804;49.214;12.276;2023-05-10T08:13:51;14.20;86.40
48994;DHT22;34804;49.214;12.276;2023-05-10T08:16:19;14.30;86.30
48994;DHT22;34804;49.214;12.276;2023-05-10T08:18:46;14.60;87.50
48994;DHT22;34804;49.214;12.276;2023-05-10T08:21:14;14.80;86.80
48994;DHT22;34804;49.214;12.276;2023-05-10T08:23:42;14.90;86.00
48994;DHT22;34804;49.214;12.276;2023-05-10T08:26:10;15.10;86.00
48994;DHT22;34804;49.214;12.276;2023-05-10T08:28:37;15.20;86.00
48994;DHT22;34804;49.214;12.276;2023-05-10T08:31:05;15.20;84.30
48994;DHT22;34804;49.214;12.276;2023-05-10T08:33:32;15.00;83.60
48994;DHT22;34804;49.214;12.276;2023-05-10T08:35:59;15.00;84.90
48994;DHT22;34804;49.214;12.276;2023-05-10T08:38:26;15.10;84.20
48994;DHT22;34804;49.214;12.276;2023-05-10T08:40:54;15.20;85.60
48994;DHT22;34804;49.214;12.276;2023-05-10T08:43:29;15.40;85.70
48994;DHT22;34804;49.214;12.276;2023-05-10T08:46:00;15.50;85.00
48994;DHT22;34804;49.214;12.276;2023-05-10T08:48:29;15.50;85.10
48994;DHT22;34804;49.214;12.276;2023-05-10T08:50:58;15.40;83.90
48994;DHT22;34804;49.214;12.276;2023-05-10T08:53:28;15.30;84.90
48994;DHT22;34804;49.214;12.276;2023-05-10T08:55:57;15.20;85.50
48994;DHT22;34804;49.214;12.276;2023-05-10T08:58:24;14.80;84.70
48994;DHT22;34804;49.214;12.276;2023-05-10T09:00:51;14.60;86.50
48994;DHT22;34804;49.214;12.276;2023-05-10T09:03:19;14.50;87.60
48994;DHT22;34804;49.214;12.276;2023-05-10T09:05:46;14.40;87.90
48994;DHT22;34804;49.214;12.276;2023-05-10T09:08:14;14.20;88.50
48994;DHT22;34804;49.214;12.276;2023-05-10T09:10:44;14.10;88.30
48994;DHT22;34804;49.214;12.276;2023-05-10T09:13:11;14.10;88.90
48994;DHT22;34804;49.214;12.276;2023-05-10T09:15:38;14.20;89.60
48994;DHT22;34804;49.214;12.276;2023-05-10T09:18:05;14.30;89.70
48994;DHT22;34804;49.214;12.276;2023-05-10T09:20:33;14.40;89.70
48994;DHT22;34804;49.214;12.276;2023-05-10T09:22:59;14.40;89.60
48994;DHT22;34804;49.214;12.276;2023-05-10T09:25:27;14.40;89.10
48994;DHT22;34804;49.214;12.276;2023-05-10T09:27:54;14.40;88.80
48994;DHT22;34804;49.214;12.276;2023-05-10T09:30:29;14.50;88.60
48994;DHT22;34804;49.214;12.276;2023-05-10T09:32:58;14.60;88.90
48994;DHT22;34804;49.214;12.276;2023-05-10T09:35:27;14.70;89.10
48994;DHT22;34804;49.214;12.276;2023-05-10T09:38:01;14.80;88.80
48994;DHT22;34804;49.214;12.276;2023-05-10T09:40:29;14.90;89.10
48994;DHT22;34804;49.214;12.276;2023-05-10T09:43:00;15.00;88.40
48994;DHT22;34804;49.214;12.276;2023-05-10T09:45:30;14.90;87.50
48994;DHT22;34804;49.214;12.276;2023-05-10T09:47:57;14.80;87.90
48994;DHT22;34804;49.214;12.276;2023-05-10T09:50:26;14.60;88.20
48994;DHT22;34804;49.214;12.276;2023-05-10T09:52:55;14.60;88.70
48994;DHT22;34804;49.214;12.276;2023-05-10T09:55:24;14.50;88.50
48994;DHT22;34804;49.214;12.276;2023-05-10T09:58:00;14.50;88.40
48994;DHT22;34804;49.214;12.276;2023-05-10T10:00:27;14.60;88.30
48994;DHT22;34804;49.214;12.276;2023-05-10T10:02:59;14.70;88.30
48994;DHT22;34804;49.214;12.276;2023-05-10T10:05:30;14.70;88.80
48994;DHT22;34804;49.214;12.276;2023-05-10T10:07:58;14.70;88.70
48994;DHT22;34804;49.214;12.276;2023-05-10T10:10:26;14.70;88.90
48994;DHT22;34804;49.214;12.276;2023-05-10T10:12:53;14.80;88.70
48994;DHT22;34804;49.214;12.276;2023-05-10T10:15:21;14.90;88.20
48994;DHT22;34804;49.214;12.276;2023-05-10T10:17:50;15.10;87.40
48994;DHT22;34804;49.214;12.276;2023-05-10T10:20:19;15.20;87.30
48994;DHT22;34804;49.214;12.276;2023-05-10T10:22:47;15.40;86.90
48994;DHT22;34804;49.214;12.276;2023-05-10T10:25:15;15.60;86.90
48994;DHT22;34804;49.214;12.276;2023-05-10T10:35:55;15.40;86.20
48994;DHT22;34804;49.214;12.276;2023-05-10T10:38:24;15.30;86.60
48994;DHT22;34804;49.214;12.276;2023-05-10T10:41:02;15.10;86.20
48994;DHT22;34804;49.214;12.276;2023-05-10T10:43:29;14.90;85.30
48994;DHT22;34804;49.214;12.276;2023-05-10T10:46:13;14.90;86.10
48994;DHT22;34804;49.214;12.276;2023-05-10T10:48:47;15.10;86.90
48994;DHT22;34804;49.214;12.276;2023-05-10T10:51:15;15.40;87.00
48994;DHT22;34804;49.214;12.276;2023-05-10T10:53:43;15.70;86.90
48994;DHT22;34804;49.214;12.276;2023-05-10T10:56:12;15.80;86.70
48994;DHT22;34804;49.214;12.276;2023-05-10T10:58:40;16.00;86.10
48994;DHT22;34804;49.214;12.276;2023-05-10T11:01:15;16.10;85.50
48994;DHT22;34804;49.214;12.276;2023-05-10T11:06:36;16.30;86.00
48994;DHT22;34804;49.214;12.276;2023-05-10T11:09:09;16.50;84.30
48994;DHT22;34804;49.214;12.276;2023-05-10T11:11:50;16.70;84.40
48994;DHT22;34804;49.214;12.276;2023-05-10T11:14:20;16.80;83.20
48994;DHT22;34804;49.214;12.276;2023-05-10T11:16:48;16.80;83.40
48994;DHT22;34804;49.214;12.276;2023-05-10T11:19:16;17.00;83.50
48994;DHT22;34804;49.214;12.276;2023-05-10T11:21:51;17.20;83.50
48994;DHT22;34804;49.214;12.276;2023-05-10T11:24:37;17.30;82.00
48994;DHT22;34804;49.214;12.276;2023-05-10T11:27:05;17.30;81.60
48994;DHT22;34804;49.214;12.276;2023-05-10T11:29:32;17.30;81.00
48994;DHT22;34804;49.214;12.276;2023-05-10T11:31:59;17.30;79.70
48994;DHT22;34804;49.214;12.276;2023-05-10T11:34:28;17.60;79.70
48994;DHT22;34804;49.214;12.276;2023-05-10T11:36:57;17.80;79.20
48994;DHT22;34804;49.214;12.276;2023-05-10T11:39:28;17.80;78.70
48994;DHT22;34804;49.214;12.276;2023-05-10T11:41:56;17.60;78.60
48994;DHT22;34804;49.214;12.276;2023-05-10T11:44:23;17.30;79.50
48994;DHT22;34804;49.214;12.276;2023-05-10T11:46:51;17.10;79.90
48994;DHT22;34804;49.214;12.276;2023-05-10T11:49:18;17.00;81.60
48994;DHT22;34804;49.214;12.276;2023-05-10T11:51:47;16.90;81.40
48994;DHT22;34804;49.214;12.276;2023-05-10T11:54:14;16.80;81.10
48994;DHT22;34804;49.214;12.276;2023-05-10T11:56:41;16.80;81.10
48994;DHT22;34804;49.214;12.276;2023-05-10T11:59:08;16.80;81.60
48994;DHT22;34804;49.214;12.276;2023-05-10T12:01:36;17.00;81.90
48994;DHT22;34804;49.214;12.276;2023-05-10T12:04:03;17.10;80.40
48994;DHT22;34804;49.214;12.276;2023-05-10T12:06:32;17.20;80.10
48994;DHT22;34804;49.214;12.276;2023-05-10T12:09:07;17.00;78.70
48994;DHT22;34804;49.214;12.276;2023-05-10T12:11:38;17.10;78.20
48994;DHT22;34804;49.214;12.276;2023-05-10T12:14:09;17.30;78.60
48994;DHT22;34804;49.214;12.276;2023-05-10T12:16:37;17.50;79.70
48994;DHT22;34804;49.214;12.276;2023-05-10T12:19:04;17.60;77.80
48994;DHT22;34804;49.214;12.276;2023-05-10T12:21:32;17.70;78.90
48994;DHT22;34804;49.214;12.276;2023-05-10T12:24:02;17.90;77.30
48994;DHT22;34804;49.214;12.276;2023-05-10T12:26:29;17.80;75.70
48994;DHT22;34804;49.214;12.276;2023-05-10T12:29:13;17.90;77.50
48994;DHT22;34804;49.214;12.276;2023-05-10T12:31:54;17.90;78.90
48994;DHT22;34804;49.214;12.276;2023-05-10T12:36:53;17.90;78.40
48994;DHT22;34804;49.214;12.276;2023-05-10T12:39:20;17.90;76.90
48994;DHT22;34804;49.214;12.276;2023-05-10T12:41:47;17.80;77.20
48994;DHT22;34804;49.214;12.276;2023-05-10T12:44:14;17.40;77.70
48994;DHT22;34804;49.214;12.276;2023-05-10T12:46:41;17.00;80.60
48994;DHT22;34804;49.214;12.276;2023-05-10T12:49:08;16.50;78.20
48994;DHT22;34804;49.214;12.276;2023-05-10T12:51:35;15.80;79.80
48994;DHT22;34804;49.214;12.276;2023-05-10T12:54:02;15.10;82.40
48994;DHT22;34804;49.214;12.276;2023-05-10T12:56:29;14.80;84.70
48994;DHT22;34804;49.214;12.276;2023-05-10T12:58:56;14.60;85.80
48994;DHT22;34804;49.214;12.276;2023-05-10T13:01:23;14.40;86.10
48994;DHT22;34804;49.214;12.276;2023-05-10T13:03:50;14.30;86.70
48994;DHT22;34804;49.214;12.276;2023-05-10T13:06:17;14.20;87.70
48994;DHT22;34804;49.214;12.276;2023-05-10T13:08:44;14.20;87.80
48994;DHT22;34804;49.214;12.276;2023-05-10T13:11:11;14.10;87.00
48994;DHT22;34804;49.214;12.276;2023-05-10T13:13:37;14.00;87.10
48994;DHT22;34804;49.214;12.276;2023-05-10T13:16:05;14.10;87.50
48994;DHT22;34804;49.214;12.276;2023-05-10T13:18:31;14.10;88.20
48994;DHT22;34804;49.214;12.276;2023-05-10T13:20:58;14.30;88.60
48994;DHT22;34804;49.214;12.276;2023-05-10T13:23:25;14.30;88.90
48994;DHT22;34804;49.214;12.276;2023-05-10T13:25:52;14.30;88.20
48994;DHT22;34804;49.214;12.276;2023-05-10T13:28:19;14.40;87.90
48994;DHT22;34804;49.214;12.276;2023-05-10T13:30:46;14.40;87.50
48994;DHT22;34804;49.214;12.276;2023-05-10T13:33:13;14.40;88.70
48994;DHT22;34804;49.214;12.276;2023-05-10T13:35:39;14.40;88.10
48994;DHT22;34804;49.214;12.276;2023-05-10T13:38:06;14.40;89.10
48994;DHT22;34804;49.214;12.276;2023-05-10T13:40:34;14.50;88.60
48994;DHT22;34804;49.214;12.276;2023-05-10T13:43:02;14.40;88.50
48994;DHT22;34804;49.214;12.276;2023-05-10T13:45:29;14.50;88.10
48994;DHT22;34804;49.214;12.276;2023-05-10T13:47:56;14.50;87.90
48994;DHT22;34804;49.214;12.276;2023-05-10T13:50:22;14.50;87.50
48994;DHT22;34804;49.214;12.276;2023-05-10T13:52:49;14.50;88.00
48994;DHT22;34804;49.214;12.276;2023-05-10T13:55:16;14.40;87.70
48994;DHT22;34804;49.214;12.276;2023-05-10T13:57:43;14.50;88.20
48994;DHT22;34804;49.214;12.276;2023-05-10T14:00:10;14.60;87.00
48994;DHT22;34804;49.214;12.276;2023-05-10T14:02:37;14.50;86.80
48994;DHT22;34804;49.214;12.276;2023-05-10T14:05:05;14.50;88.00
48994;DHT22;34804;49.214;12.276;2023-05-10T14:07:32;14.60;89.00
48994;DHT22;34804;49.214;12.276;2023-05-10T14:09:58;14.60;88.50
48994;DHT22;34804;49.214;12.276;2023-05-10T14:12:25;14.70;87.80
48994;DHT22;34804;49.214;12.276;2023-05-10T14:14:52;14.80;88.00
48994;DHT22;34804;49.214;12.276;2023-05-10T14:17:19;14.90;87.80
48994;DHT22;34804;49.214;12.276;2023-05-10T14:19:46;15.00;87.70
48994;DHT22;34804;49.214;12.276;2023-05-10T14:22:13;15.20;88.50
48994;DHT22;34804;49.214;12.276;2023-05-10T14:24:40;15.40;88.60
48994;DHT22;34804;49.214;12.276;2023-05-10T14:27:07;15.30;86.80
48994;DHT22;34804;49.214;12.276;2023-05-10T14:29:34;15.40;86.60
48994;DHT22;34804;49.214;12.276;2023-05-10T14:32:01;15.30;86.50
48994;DHT22;34804;49.214;12.276;2023-05-10T14:34:28;15.30;86.70
48994;DHT22;34804;49.214;12.276;2023-05-10T14:36:55;15.40;86.40
48994;DHT22;34804;49.214;12.276;2023-05-10T14:39:22;15.50;86.80
48994;DHT22;34804;49.214;12.276;2023-05-10T14:41:49;15.60;87.70
48994;DHT22;34804;49.214;12.276;2023-05-10T14:44:17;15.70;87.00
48994;DHT22;34804;49.214;12.276;2023-05-10T14:46:45;15.80;86.50
48994;DHT22;34804;49.214;12.276;2023-05-10T14:49:11;15.90;86.30
48994;DHT22;34804;49.214;12.276;2023-05-10T14:51:38;15.90;86.60
48994;DHT22;34804;49.214;12.276;2023-05-10T14:54:05;16.00;86.60
48994;DHT22;34804;49.214;12.276;2023-05-10T14:56:32;16.00;86.50
48994;DHT22;34804;49.214;12.276;2023-05-10T14:59:02;16.00;86.10
48994;DHT22;34804;49.214;12.276;2023-05-10T15:01:31;16.10;87.00
48994;DHT22;34804;49.214;12.276;2023-05-10T15:04:00;16.00;87.10
48994;DHT22;34804;49.214;12.276;2023-05-10T15:06:33;15.80;86.50
48994;DHT22;34804;49.214;12.276;2023-05-10T15:09:01;15.80;87.20
48994;DHT22;34804;49.214;12.276;2023-05-10T15:11:29;15.80;86.80
48994;DHT22;34804;49.214;12.276;2023-05-10T15:13:56;15.70;87.20
48994;DHT22;34804;49.214;12.276;2023-05-10T15:16:23;15.60;86.90
48994;DHT22;34804;49.214;12.276;2023-05-10T15:18:51;15.60;87.70
48994;DHT22;34804;49.214;12.276;2023-05-10T15:21:17;15.50;87.60
48994;DHT22;34804;49.214;12.276;2023-05-10T15:23:44;15.50;87.80
48994;DHT22;34804;49.214;12.276;2023-05-10T15:26:11;15.40;86.60
48994;DHT22;34804;49.214;12.276;2023-05-10T15:28:38;15.30;85.90
48994;DHT22;34804;49.214;12.276;2023-05-10T15:31:05;15.30;86.80
48994;DHT22;34804;49.214;12.276;2023-05-10T15:33:32;15.30;87.60
48994;DHT22;34804;49.214;12.276;2023-05-10T15:35:59;15.30;87.20
48994;DHT22;34804;49.214;12.276;2023-05-10T15:38:26;15.10;87.90
48994;DHT22;34804;49.214;12.276;2023-05-10T15:40:56;15.00;87.20
48994;DHT22;34804;49.214;12.276;2023-05-10T15:43:24;15.00;87.70
48994;DHT22;34804;49.214;12.276;2023-05-10T15:45:51;15.00;87.60
48994;DHT22;34804;49.214;12.276;2023-05-10T15:48:18;15.00;87.60